KTRI/TRI METAR and TAF weather

Enter ICAO airport designator
Station Type Date Time Source
KTRI METAR 2020/04/04 05:53 UTC NOAA

KTRI 040553Z 00000KT 10SM CLR 06/03 A3001 RMK AO2 SLP150 T00610028 10144 20056 50002


Station Type Date Time Source
KTRI Decoded METAR 2020/04/04 05:53 UTC NOAA

TRI-CITY REGIONAL AIRPORT, TN, United States (KTRI) 36-28N 082-24W 474M
Apr 04, 2020 - 01:53 AM EDT / 2020.04.04 0553 UTC
Wind: Calm:0
Visibility: 10 mile(s):0
Sky conditions: clear
Temperature: 43.0 F (6.1 C)
Dew Point: 37.0 F (2.8 C)
Relative Humidity: 79%
Pressure (altimeter): 30.01 in. Hg (1016 hPa)
Pressure tendency: 0.01 inches (0.2 hPa) higher than three hours ago
ob: KTRI 040553Z 00000KT 10SM CLR 06/03 A3001 RMK AO2 SLP150 T00610028 10144 20056 50002
cycle: 6

Station Type Date Time Source
KTRI TAF 2020/04/04 06:27 UTC NOAA

TAF KTRI 040525Z 0406/0506 VRB03KT P6SM FEW250

Example: see airport list